DLH1914 EDDC-EDDF
Flight info
| Callsign | DLH1914 |
|---|---|
| Flight time | 0h 58m |
| Altitude | 32000 |
| Route | ABKIS4E ABKIS Z715 NURGO T170 GAPLA/N0408F240 T178 KERAX KERAX5D |
| Aircraft | A21N/M-SDE2E3FGHIRWXY/LB1 |
Departure
| Time | 2026-05-08 18:57 |
|---|---|
| Airport | Dresden Airport (EDDC) |
Arrival
| Time | 2026-05-08 19:55 |
|---|---|
| Airport | Frankfurt Main Airport (EDDF) |
| Time | Latitude | Longitude | Altitude | Speed | Heading |
|---|---|---|---|---|---|
| 2026-05-08 17:55 | 51.12568 | 13.76673 | 758 ft | 0 kts | 221° |
| 2026-05-08 18:45 | 51.12581 | 13.76692 | 753 ft | 3 kts | 220° |
| 2026-05-08 18:45 | 51.12597 | 13.76712 | 758 ft | 3 kts | 220° |
| 2026-05-08 18:46 | 51.12611 | 13.76731 | 754 ft | 0 kts | 220° |
| 2026-05-08 18:46 | 51.12614 | 13.76735 | 758 ft | 3 kts | 220° |
| 2026-05-08 18:47 | 51.12629 | 13.76755 | 758 ft | 3 kts | 220° |
| 2026-05-08 18:47 | 51.12630 | 13.76756 | 758 ft | 0 kts | 220° |
| 2026-05-08 18:52 | 51.12629 | 13.76756 | 758 ft | 0 kts | 220° |
| 2026-05-08 18:52 | 51.12631 | 13.76736 | 754 ft | 4 kts | 308° |
| 2026-05-08 18:53 | 51.12656 | 13.76694 | 755 ft | 7 kts | 314° |
| 2026-05-08 18:53 | 51.12696 | 13.76627 | 758 ft | 10 kts | 313° |
| 2026-05-08 18:53 | 51.12751 | 13.76532 | 755 ft | 13 kts | 311° |
| 2026-05-08 18:53 | 51.12785 | 13.76395 | 758 ft | 15 kts | 239° |
| 2026-05-08 18:54 | 51.12704 | 13.76273 | 761 ft | 17 kts | 219° |
| 2026-05-08 18:54 | 51.12607 | 13.76144 | 765 ft | 19 kts | 220° |
| 2026-05-08 18:54 | 51.12502 | 13.75996 | 767 ft | 21 kts | 222° |
| 2026-05-08 18:54 | 51.12413 | 13.75869 | 768 ft | 12 kts | 221° |
| 2026-05-08 18:55 | 51.12375 | 13.75746 | 769 ft | 5 kts | 290° |
| 2026-05-08 18:55 | 51.12390 | 13.75681 | 769 ft | 8 kts | 291° |
| 2026-05-08 18:55 | 51.12421 | 13.75578 | 769 ft | 13 kts | 308° |
| 2026-05-08 18:56 | 51.12505 | 13.75519 | 769 ft | 20 kts | 31° |
| 2026-05-08 18:56 | 51.12708 | 13.75799 | 768 ft | 69 kts | 40° |
| 2026-05-08 18:56 | 51.13237 | 13.76526 | 754 ft | 130 kts | 41° |
| 2026-05-08 18:56 | 51.14026 | 13.77617 | 832 ft | 160 kts | 41° |
| 2026-05-08 18:57 | 51.14854 | 13.78795 | 1422 ft | 161 kts | 44° |
| 2026-05-08 18:57 | 51.15652 | 13.80062 | 2052 ft | 161 kts | 45° |
| 2026-05-08 18:57 | 51.16479 | 13.81258 | 2662 ft | 162 kts | 40° |
| 2026-05-08 18:57 | 51.17399 | 13.82446 | 3037 ft | 180 kts | 40° |
| 2026-05-08 18:58 | 51.18434 | 13.83830 | 3407 ft | 210 kts | 41° |
| 2026-05-08 18:58 | 51.19619 | 13.85443 | 3803 ft | 237 kts | 42° |
| 2026-05-08 18:58 | 51.20574 | 13.87673 | 4342 ft | 255 kts | 74° |
| 2026-05-08 18:58 | 51.20613 | 13.90516 | 5168 ft | 262 kts | 104° |
| 2026-05-08 18:59 | 51.19794 | 13.93072 | 6046 ft | 268 kts | 129° |
| 2026-05-08 18:59 | 51.18481 | 13.95221 | 6740 ft | 274 kts | 136° |
| 2026-05-08 18:59 | 51.17099 | 13.97333 | 7059 ft | 277 kts | 136° |
| 2026-05-08 18:59 | 51.15722 | 13.99494 | 7417 ft | 279 kts | 135° |
| 2026-05-08 19:00 | 51.14343 | 14.01707 | 8266 ft | 283 kts | 135° |
| 2026-05-08 19:00 | 51.12953 | 14.03959 | 9185 ft | 287 kts | 135° |
| 2026-05-08 19:00 | 51.11457 | 14.06088 | 10071 ft | 292 kts | 144° |
| 2026-05-08 19:00 | 51.09685 | 14.07807 | 10626 ft | 308 kts | 156° |
| 2026-05-08 19:01 | 51.07619 | 14.08722 | 10963 ft | 326 kts | 178° |
| 2026-05-08 19:01 | 51.05747 | 14.08480 | 11253 ft | 340 kts | 196° |
| 2026-05-08 19:01 | 51.03555 | 14.06874 | 11562 ft | 357 kts | 217° |
| 2026-05-08 19:01 | 51.01777 | 14.04024 | 11861 ft | 373 kts | 236° |
| 2026-05-08 19:02 | 51.00657 | 14.00320 | 12208 ft | 384 kts | 255° |
| 2026-05-08 19:02 | 51.00335 | 13.96111 | 12802 ft | 387 kts | 271° |
| 2026-05-08 19:02 | 51.00427 | 13.91824 | 13456 ft | 389 kts | 271° |
| 2026-05-08 19:02 | 51.00317 | 13.87516 | 14078 ft | 392 kts | 265° |
| 2026-05-08 19:03 | 50.99995 | 13.83212 | 14618 ft | 395 kts | 262° |
| 2026-05-08 19:03 | 50.99569 | 13.78894 | 15140 ft | 397 kts | 261° |
| 2026-05-08 19:03 | 50.99092 | 13.74567 | 15640 ft | 400 kts | 260° |
| 2026-05-08 19:03 | 50.98599 | 13.70196 | 16135 ft | 403 kts | 260° |
| 2026-05-08 19:04 | 50.98106 | 13.65805 | 16624 ft | 405 kts | 260° |
| 2026-05-08 19:04 | 50.97607 | 13.61398 | 17105 ft | 408 kts | 260° |
| 2026-05-08 19:04 | 50.97096 | 13.56954 | 17572 ft | 411 kts | 260° |
| 2026-05-08 19:04 | 50.96582 | 13.52538 | 18030 ft | 413 kts | 260° |
| 2026-05-08 19:05 | 50.96050 | 13.48017 | 18481 ft | 416 kts | 260° |
| 2026-05-08 19:05 | 50.95533 | 13.43563 | 18868 ft | 418 kts | 260° |
| 2026-05-08 19:05 | 50.95001 | 13.39024 | 19277 ft | 420 kts | 260° |
| 2026-05-08 19:05 | 50.94470 | 13.34447 | 19683 ft | 422 kts | 260° |
| 2026-05-08 19:06 | 50.93933 | 13.29851 | 20087 ft | 425 kts | 260° |
| 2026-05-08 19:06 | 50.93381 | 13.25237 | 20486 ft | 427 kts | 259° |
| 2026-05-08 19:06 | 50.92820 | 13.20604 | 20898 ft | 429 kts | 259° |
| 2026-05-08 19:06 | 50.92271 | 13.16007 | 21307 ft | 432 kts | 260° |
| 2026-05-08 19:07 | 50.91717 | 13.11319 | 21731 ft | 434 kts | 260° |
| 2026-05-08 19:07 | 50.91157 | 13.06615 | 22158 ft | 436 kts | 259° |
| 2026-05-08 19:07 | 50.90589 | 13.01881 | 22596 ft | 439 kts | 260° |
| 2026-05-08 19:07 | 50.90015 | 12.97126 | 23040 ft | 441 kts | 259° |
| 2026-05-08 19:08 | 50.89434 | 12.92342 | 23480 ft | 444 kts | 259° |
| 2026-05-08 19:08 | 50.88849 | 12.87526 | 23899 ft | 446 kts | 259° |
| 2026-05-08 19:08 | 50.88258 | 12.82691 | 24271 ft | 449 kts | 259° |
| 2026-05-08 19:08 | 50.87663 | 12.77842 | 24755 ft | 448 kts | 259° |
| 2026-05-08 19:09 | 50.87096 | 12.73064 | 25244 ft | 447 kts | 260° |
| 2026-05-08 19:09 | 50.86551 | 12.68230 | 25754 ft | 446 kts | 260° |
| 2026-05-08 19:09 | 50.86004 | 12.63410 | 26267 ft | 444 kts | 260° |
| 2026-05-08 19:09 | 50.85463 | 12.58608 | 26784 ft | 443 kts | 260° |
| 2026-05-08 19:10 | 50.84927 | 12.53822 | 27300 ft | 442 kts | 260° |
| 2026-05-08 19:10 | 50.84388 | 12.49033 | 27809 ft | 441 kts | 260° |
| 2026-05-08 19:10 | 50.83841 | 12.44275 | 28319 ft | 439 kts | 259° |
| 2026-05-08 19:10 | 50.83298 | 12.39520 | 28832 ft | 438 kts | 260° |
| 2026-05-08 19:11 | 50.82764 | 12.34795 | 29324 ft | 437 kts | 260° |
| 2026-05-08 19:11 | 50.82225 | 12.30063 | 29815 ft | 436 kts | 259° |
| 2026-05-08 19:11 | 50.81681 | 12.25349 | 30166 ft | 436 kts | 259° |
| 2026-05-08 19:12 | 50.80592 | 12.15989 | 30209 ft | 435 kts | 259° |
| 2026-05-08 19:12 | 50.79488 | 12.06576 | 30185 ft | 436 kts | 259° |
| 2026-05-08 19:13 | 50.78350 | 11.97173 | 30185 ft | 436 kts | 259° |
| 2026-05-08 19:13 | 50.77241 | 11.87764 | 30212 ft | 435 kts | 259° |
| 2026-05-08 19:14 | 50.76130 | 11.78362 | 30191 ft | 435 kts | 259° |
| 2026-05-08 19:14 | 50.74982 | 11.68958 | 30178 ft | 437 kts | 258° |
| 2026-05-08 19:15 | 50.73828 | 11.59612 | 30176 ft | 437 kts | 258° |
| 2026-05-08 19:15 | 50.72672 | 11.50203 | 30180 ft | 437 kts | 258° |
| 2026-05-08 19:16 | 50.71545 | 11.40797 | 30141 ft | 431 kts | 259° |
| 2026-05-08 19:16 | 50.70995 | 11.36201 | 29587 ft | 423 kts | 259° |
| 2026-05-08 19:16 | 50.70433 | 11.31672 | 28879 ft | 419 kts | 258° |
| 2026-05-08 19:16 | 50.69873 | 11.27247 | 28194 ft | 415 kts | 258° |
| 2026-05-08 19:17 | 50.69312 | 11.22804 | 27520 ft | 411 kts | 258° |
| 2026-05-08 19:17 | 50.68748 | 11.18405 | 26868 ft | 407 kts | 258° |
| 2026-05-08 19:17 | 50.68199 | 11.14041 | 26239 ft | 404 kts | 259° |
| 2026-05-08 19:17 | 50.67673 | 11.09717 | 25632 ft | 400 kts | 259° |
| 2026-05-08 19:18 | 50.67145 | 11.05440 | 25033 ft | 396 kts | 259° |
| 2026-05-08 19:18 | 50.66605 | 11.01202 | 24443 ft | 392 kts | 259° |
| 2026-05-08 19:18 | 50.66074 | 10.97006 | 23867 ft | 389 kts | 259° |
| 2026-05-08 19:18 | 50.65546 | 10.92845 | 23331 ft | 387 kts | 259° |
| 2026-05-08 19:19 | 50.65033 | 10.88818 | 22989 ft | 385 kts | 259° |
| 2026-05-08 19:19 | 50.64664 | 10.85954 | 22771 ft | 384 kts | 259° |
| 2026-05-08 19:19 | 50.64210 | 10.82455 | 22527 ft | 383 kts | 259° |
| 2026-05-08 19:19 | 50.63677 | 10.78352 | 22249 ft | 381 kts | 259° |
| 2026-05-08 19:20 | 50.63148 | 10.74268 | 21982 ft | 380 kts | 259° |
| 2026-05-08 19:20 | 50.62801 | 10.71566 | 21806 ft | 380 kts | 259° |
| 2026-05-08 19:20 | 50.62094 | 10.66131 | 21448 ft | 378 kts | 258° |
| 2026-05-08 19:20 | 50.61566 | 10.62140 | 21193 ft | 377 kts | 258° |
| 2026-05-08 19:21 | 50.61056 | 10.58214 | 20942 ft | 375 kts | 259° |
| 2026-05-08 19:21 | 50.60534 | 10.54196 | 20688 ft | 374 kts | 258° |
| 2026-05-08 19:21 | 50.60009 | 10.50191 | 20434 ft | 373 kts | 258° |
| 2026-05-08 19:21 | 50.59831 | 10.48835 | 20348 ft | 372 kts | 258° |
| 2026-05-08 19:22 | 50.59217 | 10.44165 | 20051 ft | 371 kts | 258° |
| 2026-05-08 19:22 | 50.58690 | 10.40197 | 19814 ft | 370 kts | 258° |
| 2026-05-08 19:22 | 50.58156 | 10.36241 | 19556 ft | 369 kts | 258° |
| 2026-05-08 19:22 | 50.57631 | 10.32298 | 19312 ft | 368 kts | 258° |
| 2026-05-08 19:23 | 50.57108 | 10.28365 | 19075 ft | 367 kts | 258° |
| 2026-05-08 19:23 | 50.56579 | 10.24441 | 18836 ft | 367 kts | 258° |
| 2026-05-08 19:23 | 50.56057 | 10.20528 | 18593 ft | 366 kts | 258° |
| 2026-05-08 19:23 | 50.55526 | 10.16618 | 18350 ft | 365 kts | 258° |
| 2026-05-08 19:24 | 50.55000 | 10.12729 | 18077 ft | 363 kts | 258° |
| 2026-05-08 19:24 | 50.54479 | 10.08852 | 17809 ft | 362 kts | 258° |
| 2026-05-08 19:24 | 50.53958 | 10.04998 | 17539 ft | 360 kts | 258° |
| 2026-05-08 19:24 | 50.53436 | 10.01152 | 17272 ft | 359 kts | 258° |
| 2026-05-08 19:25 | 50.52921 | 9.97375 | 17010 ft | 357 kts | 258° |
| 2026-05-08 19:25 | 50.52400 | 9.93564 | 16747 ft | 356 kts | 258° |
| 2026-05-08 19:25 | 50.51878 | 9.89763 | 16489 ft | 355 kts | 258° |
| 2026-05-08 19:25 | 50.51355 | 9.85981 | 16219 ft | 354 kts | 258° |
| 2026-05-08 19:26 | 50.50707 | 9.82269 | 15918 ft | 353 kts | 248° |
| 2026-05-08 19:26 | 50.49417 | 9.79002 | 15646 ft | 353 kts | 230° |
| 2026-05-08 19:26 | 50.47624 | 9.76369 | 15400 ft | 353 kts | 221° |
| 2026-05-08 19:26 | 50.45726 | 9.73935 | 15143 ft | 351 kts | 220° |
| 2026-05-08 19:27 | 50.43841 | 9.71506 | 14891 ft | 350 kts | 220° |
| 2026-05-08 19:27 | 50.41972 | 9.69066 | 14646 ft | 349 kts | 221° |
| 2026-05-08 19:27 | 50.40110 | 9.66625 | 14406 ft | 348 kts | 221° |
| 2026-05-08 19:27 | 50.38283 | 9.64225 | 14169 ft | 347 kts | 221° |
| 2026-05-08 19:28 | 50.36441 | 9.61795 | 13929 ft | 346 kts | 221° |
| 2026-05-08 19:28 | 50.34603 | 9.59368 | 13657 ft | 345 kts | 221° |
| 2026-05-08 19:28 | 50.32770 | 9.56948 | 13396 ft | 344 kts | 221° |
| 2026-05-08 19:28 | 50.30945 | 9.54547 | 13127 ft | 342 kts | 221° |
| 2026-05-08 19:29 | 50.29129 | 9.52161 | 12866 ft | 340 kts | 221° |
| 2026-05-08 19:29 | 50.27339 | 9.49808 | 12617 ft | 339 kts | 221° |
| 2026-05-08 19:29 | 50.25536 | 9.47443 | 12376 ft | 338 kts | 221° |
| 2026-05-08 19:29 | 50.23735 | 9.45084 | 12156 ft | 337 kts | 221° |
| 2026-05-08 19:30 | 50.21960 | 9.42767 | 12104 ft | 337 kts | 221° |
| 2026-05-08 19:30 | 50.20163 | 9.40424 | 12110 ft | 337 kts | 221° |
| 2026-05-08 19:30 | 50.18370 | 9.38081 | 12122 ft | 337 kts | 221° |
| 2026-05-08 19:30 | 50.16571 | 9.35735 | 12151 ft | 337 kts | 221° |
| 2026-05-08 19:31 | 50.14781 | 9.33392 | 12156 ft | 337 kts | 221° |
| 2026-05-08 19:31 | 50.12984 | 9.31042 | 12156 ft | 337 kts | 220° |
| 2026-05-08 19:31 | 50.11182 | 9.28696 | 12150 ft | 337 kts | 221° |
| 2026-05-08 19:31 | 50.09386 | 9.26358 | 12149 ft | 337 kts | 220° |
| 2026-05-08 19:32 | 50.07643 | 9.23922 | 12133 ft | 337 kts | 230° |
| 2026-05-08 19:32 | 50.06422 | 9.20849 | 12127 ft | 335 kts | 248° |
| 2026-05-08 19:32 | 50.05756 | 9.17365 | 12153 ft | 336 kts | 256° |
| 2026-05-08 19:32 | 50.05212 | 9.13837 | 12156 ft | 337 kts | 256° |
| 2026-05-08 19:33 | 50.04657 | 9.10296 | 12149 ft | 337 kts | 256° |
| 2026-05-08 19:33 | 50.04093 | 9.06813 | 12158 ft | 337 kts | 255° |
| 2026-05-08 19:33 | 50.03517 | 9.03290 | 12150 ft | 337 kts | 255° |
| 2026-05-08 19:33 | 50.02931 | 8.99768 | 12093 ft | 336 kts | 255° |
| 2026-05-08 19:34 | 50.02343 | 8.96250 | 11911 ft | 336 kts | 255° |
| 2026-05-08 19:34 | 50.01754 | 8.92745 | 11698 ft | 334 kts | 255° |
| 2026-05-08 19:34 | 50.01165 | 8.89247 | 11473 ft | 333 kts | 255° |
| 2026-05-08 19:34 | 50.00584 | 8.85775 | 11264 ft | 331 kts | 255° |
| 2026-05-08 19:35 | 50.00017 | 8.82383 | 11087 ft | 318 kts | 255° |
| 2026-05-08 19:35 | 49.99471 | 8.79126 | 10952 ft | 304 kts | 255° |
| 2026-05-08 19:35 | 49.98947 | 8.76020 | 10828 ft | 291 kts | 255° |
| 2026-05-08 19:35 | 49.98450 | 8.73070 | 10627 ft | 282 kts | 255° |
| 2026-05-08 19:36 | 49.97867 | 8.70184 | 10300 ft | 279 kts | 250° |
| 2026-05-08 19:36 | 49.97195 | 8.67369 | 9927 ft | 277 kts | 250° |
| 2026-05-08 19:36 | 49.96521 | 8.64569 | 9529 ft | 275 kts | 250° |
| 2026-05-08 19:36 | 49.95855 | 8.61798 | 9134 ft | 273 kts | 250° |
| 2026-05-08 19:37 | 49.95196 | 8.59038 | 8728 ft | 272 kts | 250° |
| 2026-05-08 19:37 | 49.94539 | 8.56298 | 8302 ft | 270 kts | 250° |
| 2026-05-08 19:37 | 49.93882 | 8.53576 | 7805 ft | 268 kts | 250° |
| 2026-05-08 19:37 | 49.93230 | 8.50873 | 7313 ft | 266 kts | 250° |
| 2026-05-08 19:38 | 49.92604 | 8.48273 | 6832 ft | 265 kts | 250° |
| 2026-05-08 19:38 | 49.91950 | 8.45562 | 6328 ft | 263 kts | 250° |
| 2026-05-08 19:38 | 49.91309 | 8.42913 | 5793 ft | 263 kts | 250° |
| 2026-05-08 19:38 | 49.90668 | 8.40256 | 5243 ft | 263 kts | 249° |
| 2026-05-08 19:39 | 49.90021 | 8.37590 | 4734 ft | 265 kts | 249° |
| 2026-05-08 19:39 | 49.89368 | 8.34897 | 4364 ft | 268 kts | 249° |
| 2026-05-08 19:39 | 49.88711 | 8.32191 | 4267 ft | 269 kts | 249° |
| 2026-05-08 19:39 | 49.88054 | 8.29472 | 4280 ft | 269 kts | 249° |
| 2026-05-08 19:40 | 49.87395 | 8.26753 | 4301 ft | 270 kts | 249° |
| 2026-05-08 19:40 | 49.86733 | 8.24033 | 4307 ft | 269 kts | 249° |
| 2026-05-08 19:40 | 49.86074 | 8.21327 | 4322 ft | 269 kts | 249° |
| 2026-05-08 19:40 | 49.85412 | 8.18606 | 4330 ft | 269 kts | 249° |
| 2026-05-08 19:41 | 49.84772 | 8.15984 | 4314 ft | 256 kts | 249° |
| 2026-05-08 19:41 | 49.84163 | 8.13480 | 4296 ft | 241 kts | 249° |
| 2026-05-08 19:41 | 49.83575 | 8.11070 | 4287 ft | 238 kts | 249° |
| 2026-05-08 19:41 | 49.82990 | 8.08673 | 4302 ft | 238 kts | 249° |
| 2026-05-08 19:42 | 49.82402 | 8.06272 | 4314 ft | 238 kts | 249° |
| 2026-05-08 19:42 | 49.81818 | 8.03878 | 4327 ft | 238 kts | 249° |
| 2026-05-08 19:42 | 49.81231 | 8.01475 | 4316 ft | 238 kts | 249° |
| 2026-05-08 19:42 | 49.80643 | 7.99079 | 4316 ft | 238 kts | 249° |
| 2026-05-08 19:43 | 49.80053 | 7.96689 | 4309 ft | 238 kts | 249° |
| 2026-05-08 19:43 | 49.79511 | 7.94267 | 4306 ft | 238 kts | 260° |
| 2026-05-08 19:43 | 49.79604 | 7.91736 | 4305 ft | 238 kts | 290° |
| 2026-05-08 19:43 | 49.80461 | 7.89624 | 4298 ft | 236 kts | 319° |
| 2026-05-08 19:44 | 49.81876 | 7.88415 | 4299 ft | 234 kts | 348° |
| 2026-05-08 19:44 | 49.83471 | 7.88442 | 4303 ft | 231 kts | 18° |
| 2026-05-08 19:44 | 49.84855 | 7.89643 | 4308 ft | 229 kts | 40° |
| 2026-05-08 19:44 | 49.86054 | 7.91265 | 4322 ft | 229 kts | 43° |
| 2026-05-08 19:45 | 49.87231 | 7.92933 | 4314 ft | 229 kts | 43° |
| 2026-05-08 19:45 | 49.88356 | 7.94664 | 4302 ft | 222 kts | 54° |
| 2026-05-08 19:45 | 49.89108 | 7.96632 | 4290 ft | 203 kts | 65° |
| 2026-05-08 19:45 | 49.89611 | 7.98568 | 4271 ft | 183 kts | 70° |
| 2026-05-08 19:46 | 49.90036 | 8.00362 | 4316 ft | 175 kts | 70° |
| 2026-05-08 19:46 | 49.90462 | 8.02136 | 4321 ft | 175 kts | 70° |
| 2026-05-08 19:46 | 49.91305 | 8.05653 | 4307 ft | 175 kts | 70° |
| 2026-05-08 19:47 | 49.91732 | 8.07429 | 4302 ft | 175 kts | 70° |
| 2026-05-08 19:47 | 49.92159 | 8.09203 | 4304 ft | 176 kts | 70° |
| 2026-05-08 19:47 | 49.92585 | 8.10981 | 4297 ft | 176 kts | 70° |
| 2026-05-08 19:47 | 49.93014 | 8.12769 | 4291 ft | 176 kts | 70° |
| 2026-05-08 19:48 | 49.93442 | 8.14551 | 4292 ft | 176 kts | 70° |
| 2026-05-08 19:48 | 49.93869 | 8.16330 | 4290 ft | 176 kts | 70° |
| 2026-05-08 19:48 | 49.94297 | 8.18115 | 4292 ft | 176 kts | 70° |
| 2026-05-08 19:48 | 49.94724 | 8.19897 | 4296 ft | 176 kts | 70° |
| 2026-05-08 19:49 | 49.95152 | 8.21679 | 4295 ft | 176 kts | 70° |
| 2026-05-08 19:49 | 49.95578 | 8.23455 | 4245 ft | 175 kts | 70° |
| 2026-05-08 19:49 | 49.96002 | 8.25223 | 4092 ft | 175 kts | 70° |
| 2026-05-08 19:49 | 49.96420 | 8.26969 | 3886 ft | 174 kts | 70° |
| 2026-05-08 19:50 | 49.96839 | 8.28718 | 3665 ft | 172 kts | 70° |
| 2026-05-08 19:50 | 49.97255 | 8.30455 | 3445 ft | 171 kts | 70° |
| 2026-05-08 19:50 | 49.97667 | 8.32175 | 3221 ft | 169 kts | 70° |
| 2026-05-08 19:50 | 49.98068 | 8.33849 | 3014 ft | 159 kts | 70° |
| 2026-05-08 19:51 | 49.98428 | 8.35352 | 2813 ft | 141 kts | 70° |
| 2026-05-08 19:51 | 49.98766 | 8.36764 | 2615 ft | 139 kts | 70° |
| 2026-05-08 19:51 | 49.99103 | 8.38172 | 2423 ft | 138 kts | 70° |
| 2026-05-08 19:51 | 49.99439 | 8.39573 | 2229 ft | 138 kts | 70° |
| 2026-05-08 19:52 | 49.99773 | 8.40969 | 2041 ft | 137 kts | 70° |
| 2026-05-08 19:52 | 50.00105 | 8.42355 | 1850 ft | 136 kts | 70° |
| 2026-05-08 19:52 | 50.00432 | 8.43721 | 1674 ft | 137 kts | 69° |
| 2026-05-08 19:52 | 50.00761 | 8.45100 | 1480 ft | 136 kts | 69° |
| 2026-05-08 19:53 | 50.01093 | 8.46487 | 1286 ft | 137 kts | 69° |
| 2026-05-08 19:53 | 50.01427 | 8.47880 | 1103 ft | 138 kts | 68° |
| 2026-05-08 19:53 | 50.01761 | 8.49278 | 926 ft | 137 kts | 68° |
| 2026-05-08 19:53 | 50.02086 | 8.50671 | 738 ft | 137 kts | 68° |
| 2026-05-08 19:54 | 50.02418 | 8.52056 | 567 ft | 136 kts | 67° |
| 2026-05-08 19:54 | 50.02755 | 8.53435 | 391 ft | 136 kts | 67° |
| 2026-05-08 19:54 | 50.03069 | 8.54723 | 343 ft | 110 kts | 69° |
| 2026-05-08 19:54 | 50.03250 | 8.55469 | 352 ft | 51 kts | 67° |
| 2026-05-08 19:55 | 50.03392 | 8.55793 | 350 ft | 31 kts | 39° |
| 2026-05-08 19:55 | 50.03488 | 8.55921 | 352 ft | 15 kts | 41° |
| 2026-05-08 19:55 | 50.03576 | 8.56043 | 355 ft | 18 kts | 41° |
| 2026-05-08 19:55 | 50.03657 | 8.56174 | 358 ft | 13 kts | 58° |
| 2026-05-08 19:56 | 50.03688 | 8.56286 | 361 ft | 12 kts | 69° |
| 2026-05-08 19:56 | 50.03719 | 8.56421 | 358 ft | 14 kts | 70° |
| 2026-05-08 19:56 | 50.03756 | 8.56578 | 363 ft | 16 kts | 69° |
| 2026-05-08 19:56 | 50.03798 | 8.56754 | 363 ft | 18 kts | 69° |
| 2026-05-08 19:57 | 50.03845 | 8.56949 | 359 ft | 20 kts | 69° |
| 2026-05-08 19:57 | 50.03897 | 8.57164 | 369 ft | 22 kts | 69° |
| 2026-05-08 19:57 | 50.03954 | 8.57402 | 374 ft | 25 kts | 69° |
| 2026-05-08 19:57 | 50.04015 | 8.57654 | 371 ft | 20 kts | 69° |
| 2026-05-08 19:58 | 50.04065 | 8.57866 | 372 ft | 22 kts | 69° |
| 2026-05-08 19:58 | 50.04116 | 8.58073 | 373 ft | 13 kts | 66° |
| 2026-05-08 19:58 | 50.04183 | 8.58167 | 372 ft | 14 kts | 25° |
| 2026-05-08 19:58 | 50.04246 | 8.58206 | 372 ft | 5 kts | 14° |
| 2026-05-08 19:59 | 50.04282 | 8.58206 | 372 ft | 0 kts | 344° |
| 2026-05-08 19:59 | 50.04281 | 8.58207 | 372 ft | 0 kts | 345° |
| 2026-05-08 19:59 | 50.04308 | 8.58194 | 372 ft | 8 kts | 341° |
| 2026-05-08 20:00 | 50.04396 | 8.58143 | 373 ft | 14 kts | 338° |
| 2026-05-08 20:00 | 50.04483 | 8.58092 | 370 ft | 7 kts | 340° |
| 2026-05-08 20:00 | 50.04527 | 8.58053 | 371 ft | 8 kts | 306° |
| 2026-05-08 20:00 | 50.04531 | 8.57967 | 369 ft | 9 kts | 246° |
| 2026-05-08 20:01 | 50.04502 | 8.57873 | 370 ft | 10 kts | 248° |
| 2026-05-08 20:01 | 50.04478 | 8.57762 | 371 ft | 12 kts | 260° |
| 2026-05-08 20:01 | 50.04453 | 8.57638 | 373 ft | 13 kts | 252° |
| 2026-05-08 20:01 | 50.04420 | 8.57503 | 368 ft | 14 kts | 248° |
| 2026-05-08 20:02 | 50.04386 | 8.57365 | 368 ft | 13 kts | 249° |
| 2026-05-08 20:02 | 50.04363 | 8.57267 | 368 ft | 6 kts | 250° |
| 2026-05-08 20:02 | 50.04347 | 8.57194 | 367 ft | 8 kts | 251° |
| 2026-05-08 20:02 | 50.04324 | 8.57096 | 370 ft | 11 kts | 249° |
| 2026-05-08 20:03 | 50.04296 | 8.56978 | 365 ft | 13 kts | 249° |
| 2026-05-08 20:03 | 50.04263 | 8.56842 | 368 ft | 14 kts | 250° |
| 2026-05-08 20:03 | 50.04229 | 8.56694 | 365 ft | 15 kts | 250° |
| 2026-05-08 20:03 | 50.04192 | 8.56543 | 362 ft | 16 kts | 248° |
| 2026-05-08 20:04 | 50.04168 | 8.56448 | 366 ft | 6 kts | 249° |
| 2026-05-08 20:04 | 50.04150 | 8.56369 | 359 ft | 8 kts | 253° |
| 2026-05-08 20:04 | 50.04186 | 8.56304 | 366 ft | 9 kts | 342° |
| 2026-05-08 20:04 | 50.04223 | 8.56284 | 359 ft | 3 kts | 341° |
| 2026-05-08 20:05 | 50.04230 | 8.56280 | 359 ft | 0 kts | 340° |
| 2026-05-08 20:09 | 50.04240 | 8.56274 | 361 ft | 5 kts | 341° |
| 2026-05-08 20:09 | 50.04280 | 8.56244 | 360 ft | 8 kts | 317° |
| 2026-05-08 20:09 | 50.04298 | 8.56161 | 360 ft | 9 kts | 276° |
| 2026-05-08 20:10 | 50.04323 | 8.56069 | 367 ft | 10 kts | 328° |
| 2026-05-08 20:10 | 50.04392 | 8.56015 | 366 ft | 12 kts | 323° |
| 2026-05-08 20:10 | 50.04439 | 8.55948 | 362 ft | 5 kts | 322° |
| 2026-05-08 20:10 | 50.04472 | 8.55931 | 367 ft | 6 kts | 12° |
| 2026-05-08 20:11 | 50.04516 | 8.55950 | 365 ft | 7 kts | 16° |
| 2026-05-08 20:11 | 50.04543 | 8.55967 | 367 ft | 3 kts | 32° |
| 2026-05-08 20:11 | 50.04559 | 8.55995 | 363 ft | 3 kts | 58° |
| 2026-05-08 20:11 | 50.04571 | 8.56027 | 361 ft | 4 kts | 66° |
| 2026-05-08 20:12 | 50.04583 | 8.56078 | 367 ft | 4 kts | 69° |
| 2026-05-08 20:12 | 50.04590 | 8.56107 | 364 ft | 3 kts | 70° |
| 2026-05-08 20:12 | 50.04600 | 8.56148 | 365 ft | 3 kts | 70° |
| 2026-05-08 20:12 | 50.04607 | 8.56179 | 365 ft | 3 kts | 70° |
| 2026-05-08 20:13 | 50.04614 | 8.56212 | 361 ft | 4 kts | 70° |
| 2026-05-08 20:13 | 50.04621 | 8.56240 | 361 ft | 5 kts | 70° |
| 2026-05-08 20:13 | 50.04626 | 8.56263 | 361 ft | 2 kts | 70° |
| 2026-05-08 20:13 | 50.04634 | 8.56298 | 361 ft | 0 kts | 71° |
| 2026-05-08 20:14 | 50.04636 | 8.56306 | 361 ft | 1 kts | 71° |
| 2026-05-08 20:14 | 50.04644 | 8.56340 | 364 ft | 5 kts | 70° |
| 2026-05-08 20:14 | 50.04651 | 8.56402 | 361 ft | 6 kts | 94° |
| 2026-05-08 20:14 | 50.04641 | 8.56449 | 365 ft | 7 kts | 118° |
| 2026-05-08 20:15 | 50.04600 | 8.56545 | 361 ft | 9 kts | 112° |
| 2026-05-08 20:15 | 50.04588 | 8.56592 | 361 ft | 6 kts | 114° |
| 2026-05-08 20:15 | 50.04582 | 8.56615 | 361 ft | 0 kts | 115° |
| 2026-05-08 20:15 | 50.04581 | 8.56616 | 361 ft | 0 kts | 115° |